Time;durP1;ratioP1;P1;durP2;ratioP2;P2;SDS_P1;SDS_P2;PMS_P1;PMS_P2;Temp;Humidity;BMP_temperature;BMP_pressure;BME280_temperature;BME280_humidity;BME280_pressure;Samples;Min_cycle;Max_cycle;Signal;HPM_P1;HPM_P2
2021/10/28 00:14:03;;;;;;;;;;;;;;;5.95;59.51;100911.37;4409343;32;20040;-87
2021/10/28 00:16:31;;;;;;;;;;;;;;;5.99;59.51;100913.09;4408129;32;19974;-87
2021/10/28 00:19:03;;;;;;;;;;;;;;;6.06;59.52;100909.69;4396104;32;20036;-87
2021/10/28 00:21:33;;;;;;;;;;;;;;;6.11;59.52;100910.56;4396334;32;19974;-87
2021/10/28 00:24:03;;;;;;;;;;;;;;;5.95;59.51;100910.50;4396314;32;20058;-87
2021/10/28 00:26:29;;;;;;;;;;;;;;;5.84;59.51;100913.84;4396246;32;19982;-87
2021/10/28 00:28:58;;;;;;;;;;;;;;;5.73;59.50;100922.41;4396318;32;20030;-88
2021/10/28 00:31:24;;;;;;;;;;;;;;;5.83;59.51;100909.53;4396486;32;20013;-87
2021/10/28 00:33:49;;;;;;;;;;;;;;;5.92;59.51;100905.31;4396261;32;19998;-87
2021/10/28 00:36:15;;;;;;;;;;;;;;;6.06;59.52;100907.09;4395863;32;30169;-87
2021/10/28 00:38:41;;;;;;;;;;;;;;;6.00;59.51;100912.25;4409018;32;20318;-87
2021/10/28 00:41:06;;;;;;;;;;;;;;;5.94;59.51;100913.94;4396480;32;20000;-87
2021/10/28 00:43:33;;;;;;;;;;;;;;;5.95;59.51;100919.13;4396012;32;20033;-87
2021/10/28 00:46:01;;;;;;;;;;;;;;;6.07;59.52;100918.31;4396292;32;19997;-87
2021/10/28 00:48:26;;;;;;;;;;;;;;;6.23;59.53;100912.34;4409021;32;19989;-87
2021/10/28 00:50:53;;;;;;;;;;;;;;;5.90;59.50;100919.94;4409878;32;19974;-87
2021/10/28 00:53:18;;;;;;;;;;;;;;;5.77;59.50;100917.25;4396419;32;20025;-88
2021/10/28 00:55:43;;;;;;;;;;;;;;;5.84;59.51;100924.19;4396076;32;19997;-88
2021/10/28 00:58:09;;;;;;;;;;;;;;;5.84;59.51;100911.25;4409137;32;20010;-87
2021/10/28 01:00:34;;;;;;;;;;;;;;;5.81;59.50;100916.41;4396100;32;19994;-88
2021/10/28 01:03:00;;;;;;;;;;;;;;;5.85;59.50;100917.28;4408690;32;20342;-88
2021/10/28 01:05:25;;;;;;;;;;;;;;;5.82;59.50;100925.88;4395781;32;19992;-88
2021/10/28 01:07:51;;;;;;;;;;;;;;;5.86;59.50;100919.00;4395506;32;19986;-88
2021/10/28 01:10:16;;;;;;;;;;;;;;;5.80;59.50;100919.84;4408739;32;19998;-88
2021/10/28 01:12:41;;;;;;;;;;;;;;;5.86;59.50;100913.84;4395622;32;28391;-87
2021/10/28 01:15:10;;;;;;;;;;;;;;;5.84;59.51;100900.06;4397690;32;20319;-87
2021/10/28 01:17:36;;;;;;;;;;;;;;;5.66;59.49;100903.38;4410656;32;20521;-88
2021/10/28 01:20:01;;;;;;;;;;;;;;;5.60;59.48;100907.66;4397448;32;24538;-88
2021/10/28 01:22:26;;;;;;;;;;;;;;;5.47;59.48;100907.59;4398198;32;19997;-88
2021/10/28 01:24:51;;;;;;;;;;;;;;;5.70;59.50;100912.91;4397693;32;21086;-88
2021/10/28 01:27:16;;;;;;;;;;;;;;;5.70;59.50;100904.31;4410043;32;25867;-87
2021/10/28 01:29:42;;;;;;;;;;;;;;;5.63;59.49;100907.69;4396733;32;30982;-87
2021/10/28 01:32:08;;;;;;;;;;;;;;;5.64;59.49;100911.97;4397226;32;20002;-87
2021/10/28 01:34:33;;;;;;;;;;;;;;;5.60;59.48;100916.28;4397368;32;20342;-87
2021/10/28 01:36:59;;;;;;;;;;;;;;;5.65;59.49;100912.00;4397154;32;21972;-87
2021/10/28 01:39:24;;;;;;;;;;;;;;;5.45;59.48;100914.47;4397788;32;20004;-86
2021/10/28 01:41:50;;;;;;;;;;;;;;;5.57;59.49;100917.97;4410549;32;20005;-87
2021/10/28 01:44:15;;;;;;;;;;;;;;;5.29;59.47;100911.75;4397646;32;19990;-87
2021/10/28 01:46:41;;;;;;;;;;;;;;;5.06;59.46;100914.13;4397777;32;20013;-87
2021/10/28 01:49:06;;;;;;;;;;;;;;;5.03;59.46;100914.97;4397595;32;20239;-87
2021/10/28 01:51:32;;;;;;;;;;;;;;;4.92;59.45;100913.97;4410214;32;20240;-87
2021/10/28 01:53:57;;;;;;;;;;;;;;;5.10;59.46;100910.72;4397715;32;20001;-87
2021/10/28 01:56:23;;;;;;;;;;;;;;;4.80;59.45;100919.91;4410268;32;19991;-87
2021/10/28 01:58:51;;;;;;;;;;;;;;;4.89;59.45;100921.69;4409968;32;19993;-87
2021/10/28 02:01:16;;;;;;;;;;;;;;;4.81;59.45;100921.63;4397959;32;19989;-86
2021/10/28 02:03:41;;;;;;;;;;;;;;;4.98;59.45;100915.78;4410332;32;19970;-87
2021/10/28 02:06:06;;;;;;;;;;;;;;;4.78;59.44;100915.59;4409739;32;28666;-87
2021/10/28 02:08:32;;;;;;;;;;;;;;;4.81;59.45;100911.31;4397220;32;20037;-88
2021/10/28 02:10:57;;;;;;;;;;;;;;;4.72;59.45;100913.78;4410282;32;19982;-87
2021/10/28 02:13:22;;;;;;;;;;;;;;;4.75;59.44;100907.81;4397555;32;19978;-86
2021/10/28 02:15:47;;;;;;;;;;;;;;;4.78;59.43;100908.72;4396939;32;27920;-87
2021/10/28 02:18:13;;;;;;;;;;;;;;;4.74;59.45;100909.53;4397811;32;20016;-87
2021/10/28 02:20:38;;;;;;;;;;;;;;;4.75;59.44;100907.81;4410483;32;20058;-87
2021/10/28 02:23:04;;;;;;;;;;;;;;;4.58;59.43;100905.06;4410012;32;19992;-86
2021/10/28 02:25:29;;;;;;;;;;;;;;;4.66;59.44;100900.84;4397636;32;19990;-87
2021/10/28 02:27:54;;;;;;;;;;;;;;;4.51;59.43;100895.53;4396928;32;26687;-87
2021/10/28 02:30:20;;;;;;;;;;;;;;;4.55;59.43;100899.88;4409905;32;21644;-87
2021/10/28 02:32:46;;;;;;;;;;;;;;;4.48;59.42;100891.19;4409603;32;27704;-87
2021/10/28 02:35:11;;;;;;;;;;;;;;;4.65;59.44;100883.63;4409905;32;20307;-87
2021/10/28 02:37:36;;;;;;;;;;;;;;;4.48;59.42;100887.72;4397144;32;19982;-87
2021/10/28 02:40:02;;;;;;;;;;;;;;;4.54;59.42;100885.25;4410067;32;19986;-87
2021/10/28 02:42:28;;;;;;;;;;;;;;;4.61;59.43;100890.47;4397312;32;19967;-87
2021/10/28 02:44:53;;;;;;;;;;;;;;;4.41;59.42;100896.25;4397024;32;20000;-87
2021/10/28 02:47:18;;;;;;;;;;;;;;;4.45;59.42;100888.56;4409963;32;20024;-88
2021/10/28 02:49:44;;;;;;;;;;;;;;;4.75;59.44;100889.75;4410404;32;20649;-88
2021/10/28 02:52:09;;;;;;;;;;;;;;;4.71;59.43;100894.00;4397411;32;20009;-88
2021/10/28 02:54:34;;;;;;;;;;;;;;;4.76;59.44;100883.75;4397474;32;19977;-88
2021/10/28 02:57:00;;;;;;;;;;;;;;;5.05;59.46;100887.47;4410031;32;20011;-88
2021/10/28 02:59:25;;;;;;;;;;;;;;;4.81;59.45;100893.25;4397345;32;19990;-87
2021/10/28 03:01:50;;;;;;;;;;;;;;;4.65;59.44;100888.78;4397154;32;20012;-87
2021/10/28 03:04:16;;;;;;;;;;;;;;;4.61;59.43;100895.63;4397276;32;20334;-87
2021/10/28 03:06:42;;;;;;;;;;;;;;;4.54;59.43;100893.84;4409804;32;20036;-88
2021/10/28 03:09:07;;;;;;;;;;;;;;;4.81;59.45;100892.41;4410029;32;20354;-87
2021/10/28 03:11:33;;;;;;;;;;;;;;;4.88;59.46;100895.03;4409484;32;19990;-88
2021/10/28 03:13:58;;;;;;;;;;;;;;;4.72;59.43;100889.69;4397542;32;19990;-87
2021/10/28 03:16:33;;;;;;;;;;;;;;;4.62;59.44;100884.47;4409844;32;20363;-89
2021/10/28 03:26:58;;;;;;;;;;;;;;;4.51;59.43;100895.53;4410203;32;20008;-88
2021/10/28 03:29:23;;;;;;;;;;;;;;;4.58;59.43;100889.59;4409769;32;19989;-88
2021/10/28 03:31:49;;;;;;;;;;;;;;;4.62;59.43;100892.19;4396432;32;28735;-89
2021/10/28 03:34:14;;;;;;;;;;;;;;;4.63;59.44;100885.34;4396797;32;19974;-85
2021/10/28 03:44:23;;;;;;;;;;;;;;;4.68;59.44;100895.69;4409665;32;19966;-88
2021/10/28 04:00:33;;;;;;;;;;;;;;;4.31;59.41;100911.63;4408370;32;19997;-84
2021/10/28 04:18:18;;;;;;;;;;;;;;;4.25;59.41;100927.00;4409314;32;20003;-85
2021/10/28 04:29:14;;;;;;;;;;;;;;;4.31;59.42;100918.50;4377814;32;19995;-86
2021/10/28 04:31:40;;;;;;;;;;;;;;;4.38;59.42;100916.84;4376969;32;20757;-85
2021/10/28 04:34:09;;;;;;;;;;;;;;;4.15;59.41;100920.00;4376385;32;19975;-84
2021/10/28 04:36:34;;;;;;;;;;;;;;;4.21;59.41;100921.78;4395642;32;20033;-85
2021/10/28 04:39:00;;;;;;;;;;;;;;;4.23;59.42;100920.97;4395359;32;20319;-86
2021/10/28 04:41:25;;;;;;;;;;;;;;;4.26;59.41;100922.75;4395539;32;20355;-85
2021/10/28 04:43:51;;;;;;;;;;;;;;;4.27;59.42;100922.75;4394624;32;19986;-85
2021/10/28 04:46:16;;;;;;;;;;;;;;;4.22;59.42;100920.94;4407831;32;20012;-85
2021/10/28 04:48:41;;;;;;;;;;;;;;;4.38;59.42;100916.84;4396663;32;20002;-86
2021/10/28 04:51:06;;;;;;;;;;;;;;;4.37;59.42;100917.69;4410110;32;19995;-87
2021/10/28 04:53:32;;;;;;;;;;;;;;;4.23;59.41;100920.97;4396801;32;20002;-86
2021/10/28 04:55:57;;;;;;;;;;;;;;;4.11;59.40;100918.25;4397828;32;19970;-87
2021/10/28 04:58:23;;;;;;;;;;;;;;;3.93;59.40;100918.00;4397871;32;19994;-88
2021/10/28 05:00:48;;;;;;;;;;;;;;;4.03;59.40;100914.72;4410959;32;20036;-88
2021/10/28 05:03:14;;;;;;;;;;;;;;;3.89;59.39;100923.97;4398027;32;20014;-88
2021/10/28 05:05:39;;;;;;;;;;;;;;;4.13;59.41;100918.25;4397525;32;20089;-88
2021/10/28 05:08:04;;;;;;;;;;;;;;;4.01;59.40;100921.53;4410566;32;19978;-88
2021/10/28 05:10:32;;;;;;;;;;;;;;;3.73;59.39;100924.56;4410407;32;19994;-88
2021/10/28 05:12:57;;;;;;;;;;;;;;;3.98;59.39;100926.66;4411881;32;19999;-88
2021/10/28 05:15:22;;;;;;;;;;;;;;;3.97;59.39;100918.06;4410674;32;19970;-87
2021/10/28 05:17:48;;;;;;;;;;;;;;;4.08;59.40;100919.94;4397758;32;19982;-87
2021/10/28 05:20:13;;;;;;;;;;;;;;;3.96;59.39;100926.62;4397928;32;19994;-87
2021/10/28 05:22:38;;;;;;;;;;;;;;;4.06;59.41;100921.63;4410824;32;19992;-88
2021/10/28 05:25:04;;;;;;;;;;;;;;;3.78;59.39;100922.91;4410764;32;19978;-88
2021/10/28 05:27:29;;;;;;;;;;;;;;;3.76;59.39;100920.31;4410326;32;20034;-88
2021/10/28 05:29:54;;;;;;;;;;;;;;;3.65;59.38;100925.34;4397530;32;24010;-88
2021/10/28 05:32:19;;;;;;;;;;;;;;;3.88;59.39;100922.22;4397519;32;23585;-88
2021/10/28 05:34:47;;;;;;;;;;;;;;;3.76;59.39;100928.06;4410587;32;20005;-88
2021/10/28 05:37:13;;;;;;;;;;;;;;;3.89;59.39;100934.25;4397845;32;19994;-89
2021/10/28 05:39:38;;;;;;;;;;;;;;;3.75;59.38;100930.59;4410322;32;20020;-88
2021/10/28 05:42:03;;;;;;;;;;;;;;;3.86;59.39;100932.50;4397418;32;20012;-88
2021/10/28 05:44:29;;;;;;;;;;;;;;;3.90;59.39;100938.56;4397698;32;20303;-88
2021/10/28 05:46:54;;;;;;;;;;;;;;;4.05;59.40;100937.91;4410677;32;19982;-89
2021/10/28 05:49:21;;;;;;;;;;;;;;;4.02;59.40;100946.44;4397813;32;19993;-88
2021/10/28 05:51:47;;;;;;;;;;;;;;;3.93;59.39;100946.34;4398029;32;19942;-89
2021/10/28 05:54:13;;;;;;;;;;;;;;;4.14;59.41;100953.50;4410320;32;19978;-88
2021/10/28 05:56:38;;;;;;;;;;;;;;;3.93;59.39;100954.06;4410064;32;20579;-88
2021/10/28 05:59:03;;;;;;;;;;;;;;;4.14;59.41;100950.91;4410170;32;19997;-88
2021/10/28 06:01:28;;;;;;;;;;;;;;;4.21;59.41;100955.28;4410299;32;19998;-88
2021/10/28 06:03:54;;;;;;;;;;;;;;;4.18;59.41;100966.44;4409829;32;25807;-88
2021/10/28 06:06:19;;;;;;;;;;;;;;;4.33;59.42;100960.62;4397697;32;20029;-88
2021/10/28 06:08:44;;;;;;;;;;;;;;;4.35;59.43;100956.34;4410142;32;20338;-88
2021/10/28 06:11:10;;;;;;;;;;;;;;;4.50;59.44;100959.13;4397379;32;20369;-89
2021/10/28 06:13:42;;;;;;;;;;;;;;;4.58;59.43;100961.78;4397594;32;19978;-89
2021/10/28 06:16:08;;;;;;;;;;;;;;;4.67;59.44;100963.59;4410207;32;20001;-89
2021/10/28 06:18:37;;;;;;;;;;;;;;;4.73;59.44;100963.66;4410398;32;19989;-89
2021/10/28 06:21:02;;;;;;;;;;;;;;;4.94;59.46;100964.75;4410428;32;20028;-89
2021/10/28 06:23:27;;;;;;;;;;;;;;;4.94;59.46;100963.88;4397750;32;20278;-89
2021/10/28 06:25:53;;;;;;;;;;;;;;;5.18;59.47;100973.59;4397856;32;20037;-89
2021/10/28 06:28:18;;;;;;;;;;;;;;;5.38;59.47;100963.44;4397715;32;20002;-89
2021/10/28 06:30:43;;;;;;;;;;;;;;;5.48;59.48;100967.84;4397711;32;20010;-89
2021/10/28 06:33:12;;;;;;;;;;;;;;;5.58;59.49;100976.53;4397795;32;20021;-88
2021/10/28 06:35:38;;;;;;;;;;;;;;;5.77;59.50;100968.94;4397988;32;20044;-89
2021/10/28 06:38:03;;;;;;;;;;;;;;;5.65;59.49;100974.00;4397665;32;20295;-88
2021/10/28 06:40:28;;;;;;;;;;;;;;;5.84;59.51;100967.25;4412673;32;20284;-88
2021/10/28 06:42:54;;;;;;;;;;;;;;;5.94;59.51;100966.50;4411078;32;19970;-88
2021/10/28 06:45:19;;;;;;;;;;;;;;;5.92;59.51;100967.34;4409843;32;20291;-87
2021/10/28 06:47:44;;;;;;;;;;;;;;;6.08;59.52;100970.00;4408822;32;20025;-89
2021/10/28 06:50:14;;;;;;;;;;;;;;;6.04;59.52;100977.75;4395704;32;20068;-88
2021/10/28 06:52:50;;;;;;;;;;;;;;;6.15;59.52;100976.97;4396430;32;19962;-89
2021/10/28 07:03:38;;;;;;;;;;;;;;;6.48;59.54;100970.22;4408998;32;20034;-90
2021/10/28 07:06:08;;;;;;;;;;;;;;;6.45;59.54;100962.44;4408931;32;19998;-89
2021/10/28 07:08:37;;;;;;;;;;;;;;;6.60;59.55;100969.37;4396291;32;20678;-90
2021/10/28 07:11:07;;;;;;;;;;;;;;;6.72;59.54;100967.72;4395329;32;19978;-89
2021/10/28 07:13:33;;;;;;;;;;;;;;;6.98;59.57;100970.38;4408680;32;19986;-89
2021/10/28 08:16:01;;;;;;;;;;;;;;;11.06;59.79;100934.91;4409634;32;20001;-90
2021/10/28 08:18:14;;;;;;;;;;;;;;;11.11;59.79;100940.88;4403493;32;19982;-90
2021/10/28 08:20:54;;;;;;;;;;;;;;;11.10;59.80;100946.13;4396881;32;20002;-91
2021/10/28 08:31:25;;;;;;;;;;;;;;;11.89;59.83;100937.88;4402869;32;20041;-91
2021/10/28 08:33:50;;;;;;;;;;;;;;;11.82;59.83;100931.03;4396190;32;19970;-90
2021/10/28 08:36:23;;;;;;;;;;;;;;;11.93;59.84;100930.88;4396471;32;19989;-90
2021/10/28 08:38:48;;;;;;;;;;;;;;;12.27;59.85;100926.69;4409466;32;19993;-90
2021/10/28 08:41:14;;;;;;;;;;;;;;;12.40;59.86;100932.53;4396722;32;19991;-91
2021/10/28 08:43:42;;;;;;;;;;;;;;;12.44;59.87;100922.88;4408639;32;24781;-91
2021/10/28 08:46:08;;;;;;;;;;;;;;;12.67;59.88;100928.47;4408971;32;19978;-91
2021/10/28 08:48:37;;;;;;;;;;;;;;;12.72;59.88;100920.53;4396325;32;19973;-90
2021/10/28 08:53:59;;;;;;;;;;;;;;;13.00;59.90;100924.22;4408778;32;20037;-91
2021/10/28 09:32:09;;;;;;;;;;;;;;;14.69;59.98;100925.03;4407305;32;20009;-90
2021/10/28 09:45:29;;;;;;;;;;;;;;;15.00;60.00;100930.16;4409357;32;20601;-90
2021/10/28 09:50:29;;;;;;;;;;;;;;;14.92;60.00;100921.69;4409094;32;19978;-90
2021/10/28 09:53:09;;;;;;;;;;;;;;;15.19;60.02;100924.34;4408992;32;19978;-90
2021/10/28 09:58:23;;;;;;;;;;;;;;;15.62;60.04;100915.94;4409191;32;19970;-91
2021/10/28 10:00:48;;;;;;;;;;;;;;;15.81;60.05;100918.78;4410247;32;20053;-91
2021/10/28 10:03:21;;;;;;;;;;;;;;;16.06;60.06;100906.47;4395618;32;32576;-91
2021/10/28 10:05:47;;;;;;;;;;;;;;;16.04;60.06;100910.06;4409229;32;20097;-91
2021/10/28 10:08:13;;;;;;;;;;;;;;;16.09;60.06;100906.41;4409143;32;20086;-91
2021/10/28 10:10:38;;;;;;;;;;;;;;;16.21;60.07;100899.81;4409249;32;19997;-90
2021/10/28 10:13:03;;;;;;;;;;;;;;;16.39;60.07;100904.41;4408095;32;29545;-91
2021/10/28 10:15:29;;;;;;;;;;;;;;;16.28;60.07;100902.16;4409079;32;20251;-91
2021/10/28 10:17:58;;;;;;;;;;;;;;;16.33;60.09;100902.00;4396208;32;20013;-91
2021/10/28 10:20:33;;;;;;;;;;;;;;;16.48;60.09;100896.16;4408923;32;19974;-91
2021/10/28 10:28:56;;;;;;;;;;;;;;;16.88;60.10;100884.13;4408897;32;20464;-91
2021/10/28 11:20:14;;;;;;;;;;;;;;;18.04;60.18;100832.66;4409933;32;20035;-90
2021/10/28 11:28:07;;;;;;;;;;;;;;;18.45;60.19;100821.94;4408667;32;20041;-89
2021/10/28 12:19:53;;;;;;;;;;;;;;;18.54;60.20;100760.88;4407956;32;19986;-89
2021/10/28 12:48:18;;;;;;;;;;;;;;;18.55;60.21;100738.87;4407492;32;20636;-90
2021/10/28 12:54:01;;;;;;;;;;;;;;;18.66;60.21;100723.38;4407520;32;19962;-90
2021/10/28 12:56:38;;;;;;;;;;;;;;;18.55;60.21;100732.75;4407358;32;19982;-90
2021/10/28 13:56:49;;;;;;;;;;;;;;;17.86;60.18;100686.00;4409088;32;20725;-90
2021/10/28 14:39:01;;;;;;;;;;;;;;;17.17;60.14;100683.00;4410245;32;20097;-89
2021/10/28 15:30:18;;;;;;;;;;;;;;;15.62;60.06;100661.38;4408360;32;20398;-88
2021/10/28 15:35:32;;;;;;;;;;;;;;;15.38;60.04;100664.84;4409801;32;20266;-91
2021/10/28 15:43:18;;;;;;;;;;;;;;;15.02;60.02;100660.06;4409858;32;20373;-90
2021/10/28 15:53:46;;;;;;;;;;;;;;;14.38;59.98;100670.09;4409445;32;19998;-90
2021/10/28 16:23:13;;;;;;;;;;;;;;;12.45;59.88;100676.53;4409556;32;19997;-90
2021/10/28 16:25:38;;;;;;;;;;;;;;;12.37;59.88;100671.50;4409102;32;20014;-90
2021/10/28 16:28:03;;;;;;;;;;;;;;;12.02;59.85;100681.91;4395511;32;23137;-90
2021/10/28 16:30:29;;;;;;;;;;;;;;;11.74;59.84;100681.66;4396439;32;20012;-91
2021/10/28 16:32:57;;;;;;;;;;;;;;;11.45;59.83;100690.09;4396298;32;20001;-90
2021/10/28 16:38:44;;;;;;;;;;;;;;;11.39;59.82;100691.09;4376444;32;19998;-92
2021/10/28 16:41:15;;;;;;;;;;;;;;;11.17;59.81;100692.41;4396325;32;20089;-91
2021/10/28 16:43:58;;;;;;;;;;;;;;;11.08;59.81;100696.00;4390085;32;19959;-91
2021/10/28 16:46:23;;;;;;;;;;;;;;;10.84;59.79;100697.31;4399577;32;19992;-92
2021/10/28 16:49:22;;;;;;;;;;;;;;;10.79;59.79;100698.31;4398151;32;20319;-89
2021/10/28 16:55:29;;;;;;;;;;;;;;;10.54;59.77;100697.87;4411018;32;20825;-89
2021/10/28 16:57:55;;;;;;;;;;;;;;;10.12;59.75;100706.28;4406842;32;20088;-89
2021/10/28 17:00:20;;;;;;;;;;;;;;;9.95;59.74;100710.03;4397236;32;19990;-88
2021/10/28 17:02:45;;;;;;;;;;;;;;;10.07;59.75;100715.06;4384891;32;20396;-88
2021/10/28 17:05:12;;;;;;;;;;;;;;;9.79;59.74;100711.97;4397124;32;27873;-89
2021/10/28 17:07:37;;;;;;;;;;;;;;;9.73;59.73;100712.94;4398030;32;20636;-89
2021/10/28 17:10:04;;;;;;;;;;;;;;;9.74;59.73;100708.59;4399857;32;19986;-91
2021/10/28 17:12:29;;;;;;;;;;;;;;;9.92;59.74;100710.06;4410502;32;19974;-90
2021/10/28 17:14:54;;;;;;;;;;;;;;;9.93;59.74;100712.63;4397035;32;19997;-91
2021/10/28 17:17:20;;;;;;;;;;;;;;;9.86;59.73;100711.00;4409629;32;19986;-90
2021/10/28 17:19:47;;;;;;;;;;;;;;;9.82;59.73;100711.94;4396727;32;25707;-91
2021/10/28 17:22:12;;;;;;;;;;;;;;;9.78;59.73;100710.25;4397866;32;19970;-90
2021/10/28 17:24:44;;;;;;;;;;;;;;;9.71;59.72;100708.63;4410496;32;20016;-90
2021/10/28 17:27:10;;;;;;;;;;;;;;;9.64;59.73;100707.81;4410294;32;20344;-92
2021/10/28 17:29:35;;;;;;;;;;;;;;;9.47;59.71;100715.00;4409990;32;22600;-92
2021/10/28 17:32:00;;;;;;;;;;;;;;;9.43;59.72;100723.69;4397647;32;20017;-91
2021/10/28 17:34:26;;;;;;;;;;;;;;;9.45;59.71;100721.91;4397615;32;20315;-90
2021/10/28 17:36:55;;;;;;;;;;;;;;;9.40;59.71;100718.53;4396801;32;19989;-92
2021/10/28 17:39:21;;;;;;;;;;;;;;;9.15;59.70;100726.59;4397202;32;19989;-91
2021/10/28 17:41:46;;;;;;;;;;;;;;;9.03;59.68;100731.06;4410414;32;19986;-91
2021/10/28 17:44:12;;;;;;;;;;;;;;;8.92;59.68;100732.03;4397607;32;19997;-91
2021/10/28 17:46:37;;;;;;;;;;;;;;;8.78;59.67;100723.50;4410247;32;20350;-91
2021/10/28 17:49:02;;;;;;;;;;;;;;;8.93;59.68;100728.53;4397124;32;23173;-91
2021/10/28 17:51:27;;;;;;;;;;;;;;;8.99;59.69;100729.34;4397297;32;19997;-91
2021/10/28 17:53:53;;;;;;;;;;;;;;;8.95;59.68;100723.34;4396786;32;20584;-91
2021/10/28 17:56:18;;;;;;;;;;;;;;;8.95;59.68;100722.47;4409445;32;19994;-92
2021/10/28 17:58:44;;;;;;;;;;;;;;;8.74;59.67;100720.94;4397503;32;20001;-91
2021/10/28 18:01:11;;;;;;;;;;;;;;;8.72;59.67;100725.28;4397136;32;19985;-92
2021/10/28 18:03:36;;;;;;;;;;;;;;;8.49;59.66;100728.94;4410241;32;20033;-91
2021/10/28 18:06:01;;;;;;;;;;;;;;;8.64;59.67;100727.09;4397386;32;20021;-91
2021/10/28 18:08:26;;;;;;;;;;;;;;;8.49;59.65;100717.69;4411306;32;19978;-92
2021/10/28 18:10:52;;;;;;;;;;;;;;;8.41;59.65;100728.13;4409689;32;22884;-90
2021/10/28 18:13:18;;;;;;;;;;;;;;;8.41;59.66;100722.09;4409907;32;20318;-90
2021/10/28 18:15:44;;;;;;;;;;;;;;;8.23;59.65;100729.09;4397123;32;20121;-89
2021/10/28 18:18:09;;;;;;;;;;;;;;;8.23;59.64;100723.03;4397193;32;20072;-90
2021/10/28 18:20:35;;;;;;;;;;;;;;;8.35;59.64;100727.34;4410870;32;23695;-92
2021/10/28 18:23:00;;;;;;;;;;;;;;;8.15;59.64;100728.28;4397199;32;20236;-90
2021/10/28 18:25:25;;;;;;;;;;;;;;;8.00;59.63;100726.66;4410021;32;19986;-91
2021/10/28 18:27:56;;;;;;;;;;;;;;;8.13;59.63;100732.63;4410152;32;20017;-89
2021/10/28 18:30:21;;;;;;;;;;;;;;;7.98;59.62;100722.34;4410626;32;19973;-90
2021/10/28 18:32:47;;;;;;;;;;;;;;;8.17;59.64;100716.19;4397366;32;20008;-91
2021/10/28 18:35:12;;;;;;;;;;;;;;;8.15;59.64;100723.09;4409814;32;20030;-90
2021/10/28 18:37:38;;;;;;;;;;;;;;;8.23;59.65;100718.72;4397292;32;20002;-91
2021/10/28 18:40:03;;;;;;;;;;;;;;;8.20;59.64;100720.47;4409967;32;19998;-91
2021/10/28 18:42:28;;;;;;;;;;;;;;;8.18;59.64;100722.22;4410324;32;20239;-91
2021/10/28 18:44:54;;;;;;;;;;;;;;;8.11;59.64;100716.22;4396932;32;20009;-91
2021/10/28 18:47:20;;;;;;;;;;;;;;;8.13;59.63;100711.03;4397006;32;21859;-90
2021/10/28 18:49:45;;;;;;;;;;;;;;;8.05;59.63;100718.87;4410143;32;20354;-90
2021/10/28 18:52:10;;;;;;;;;;;;;;;7.82;59.62;100731.09;4408865;32;32029;-91
2021/10/28 18:54:37;;;;;;;;;;;;;;;7.78;59.62;100721.59;4409960;32;20002;-92
2021/10/28 18:57:03;;;;;;;;;;;;;;;7.78;59.62;100722.44;4409836;32;20796;-91
2021/10/28 18:59:28;;;;;;;;;;;;;;;7.88;59.63;100725.88;4409867;32;19982;-91
2021/10/28 19:01:55;;;;;;;;;;;;;;;7.89;59.63;100733.62;4409409;32;21358;-91
2021/10/28 19:04:21;;;;;;;;;;;;;;;7.88;59.62;100725.88;4409849;32;20012;-92
2021/10/28 19:06:46;;;;;;;;;;;;;;;7.88;59.62;100725.88;4395747;32;22869;-90
2021/10/28 19:09:12;;;;;;;;;;;;;;;7.72;59.61;100730.25;4397154;32;20345;-90
2021/10/28 19:11:37;;;;;;;;;;;;;;;7.67;59.61;100730.28;4409483;32;20260;-92
2021/10/28 19:14:02;;;;;;;;;;;;;;;7.60;59.60;100736.38;4397408;32;20025;-89
2021/10/28 19:16:28;;;;;;;;;;;;;;;7.49;59.60;100732.94;4408751;32;20952;-93
2021/10/28 19:18:54;;;;;;;;;;;;;;;7.77;59.62;100733.69;4409299;32;20255;-93
2021/10/28 19:21:20;;;;;;;;;;;;;;;7.64;59.61;100725.13;4397236;32;19986;-93
2021/10/28 19:23:45;;;;;;;;;;;;;;;7.54;59.61;100731.19;4396431;32;19997;-90
2021/10/28 19:26:10;;;;;;;;;;;;;;;7.44;59.60;100728.66;4397152;32;20381;-90
2021/10/28 19:28:35;;;;;;;;;;;;;;;7.47;59.59;100728.63;4409206;32;20012;-91
2021/10/28 19:31:03;;;;;;;;;;;;;;;7.31;59.59;100722.63;4409574;32;20291;-91
2021/10/28 19:33:49;;;;;;;;;;;;;;;7.38;59.59;100726.94;4409248;32;20717;-90
2021/10/28 19:36:19;;;;;;;;;;;;;;;7.48;59.60;100731.22;4410609;32;19982;-90
2021/10/28 19:38:58;;;;;;;;;;;;;;;7.46;59.59;100721.75;4398657;32;20053;-89
2021/10/28 19:46:51;;;;;;;;;;;;;;;7.22;59.58;100726.13;4409919;32;20005;-91
2021/10/28 19:49:17;;;;;;;;;;;;;;;7.28;59.59;100725.25;4396577;32;19981;-92
2021/10/28 19:51:43;;;;;;;;;;;;;;;7.24;59.58;100720.94;4396419;32;29163;-91
2021/10/28 19:54:11;;;;;;;;;;;;;;;7.25;59.60;100723.53;4396773;32;20085;-92
2021/10/28 19:56:36;;;;;;;;;;;;;;;7.32;59.60;100719.19;4409363;32;20368;-92
2021/10/28 19:59:02;;;;;;;;;;;;;;;7.05;59.58;100731.34;4409964;32;20004;-91
2021/10/28 20:01:50;;;;;;;;;;;;;;;6.94;59.56;100727.06;4409754;32;20014;-90
2021/10/28 20:20:10;;;;;;;;;;;;;;;6.07;59.52;100733.06;4409366;32;19960;-91
2021/10/28 20:22:36;;;;;;;;;;;;;;;6.09;59.52;100736.50;4396520;32;19982;-91
2021/10/28 20:25:03;;;;;;;;;;;;;;;6.23;59.53;100726.22;4396656;32;20274;-91
2021/10/28 20:27:28;;;;;;;;;;;;;;;6.24;59.52;100730.53;4384570;32;19994;-92
2021/10/28 20:29:55;;;;;;;;;;;;;;;6.28;59.53;100732.25;4396600;32;20012;-92
2021/10/28 20:32:21;;;;;;;;;;;;;;;6.46;59.54;100728.81;4396730;32;19993;-91
2021/10/28 20:37:15;;;;;;;;;;;;;;;6.26;59.53;100733.09;4408975;32;20016;-91
2021/10/28 20:39:41;;;;;;;;;;;;;;;6.33;59.53;100729.66;4409322;32;20022;-92
2021/10/28 20:42:06;;;;;;;;;;;;;;;6.30;59.53;100734.81;4409504;32;19985;-90
2021/10/28 20:44:31;;;;;;;;;;;;;;;6.42;59.54;100727.97;4408633;32;19997;-90
2021/10/28 20:46:57;;;;;;;;;;;;;;;6.43;59.54;100728.81;4408080;32;23157;-90
2021/10/28 20:49:22;;;;;;;;;;;;;;;6.57;59.54;100731.38;4409225;32;19993;-92
2021/10/28 20:51:47;;;;;;;;;;;;;;;6.57;59.54;100731.38;4409004;32;19993;-92
2021/10/28 20:54:12;;;;;;;;;;;;;;;6.59;59.55;100727.94;4420980;32;21984;-92
2021/10/28 20:56:38;;;;;;;;;;;;;;;6.55;59.55;100727.94;4407269;32;33971;-92
2021/10/28 20:59:03;;;;;;;;;;;;;;;6.46;59.54;100723.66;4395737;32;20032;-91
2021/10/28 21:01:28;;;;;;;;;;;;;;;6.69;59.55;100726.22;4395907;32;19974;-91
2021/10/28 21:03:54;;;;;;;;;;;;;;;6.69;59.55;100724.50;4395781;32;19995;-92
2021/10/28 21:06:19;;;;;;;;;;;;;;;6.46;59.54;100721.91;4396071;32;20000;-91
2021/10/28 21:08:44;;;;;;;;;;;;;;;6.34;59.53;100727.06;4383012;32;19993;-91
2021/10/28 21:11:10;;;;;;;;;;;;;;;6.14;59.53;100726.19;4396179;32;19982;-92
2021/10/28 21:13:35;;;;;;;;;;;;;;;6.38;59.54;100721.03;4395404;32;20006;-91
2021/10/28 21:16:01;;;;;;;;;;;;;;;5.93;59.51;100719.28;4395282;32;20693;-91
2021/10/28 21:18:27;;;;;;;;;;;;;;;5.86;59.50;100714.91;4396387;32;19986;-91
2021/10/28 21:20:52;;;;;;;;;;;;;;;5.97;59.51;100712.38;4395979;32;19981;-91
2021/10/28 21:23:18;;;;;;;;;;;;;;;6.20;59.53;100708.13;4396007;32;20020;-92
2021/10/28 21:25:43;;;;;;;;;;;;;;;6.10;59.52;100714.13;4395985;32;19967;-91
2021/10/28 21:28:09;;;;;;;;;;;;;;;5.91;59.52;100713.22;4395143;32;26686;-92
2021/10/28 21:30:34;;;;;;;;;;;;;;;5.97;59.51;100712.38;4395839;32;24977;-91
2021/10/28 21:32:59;;;;;;;;;;;;;;;6.04;59.51;100707.22;4397510;32;22612;-92
2021/10/28 21:35:24;;;;;;;;;;;;;;;6.01;59.51;100703.78;4410858;32;19982;-91
2021/10/28 21:37:50;;;;;;;;;;;;;;;6.19;59.52;100711.56;4397483;32;20267;-92
2021/10/28 21:40:16;;;;;;;;;;;;;;;6.15;59.52;100705.53;4397320;32;26555;-92
2021/10/28 21:42:41;;;;;;;;;;;;;;;6.27;59.53;100698.63;4397961;32;19989;-92
2021/10/28 21:45:08;;;;;;;;;;;;;;;6.01;59.51;100699.47;4397443;32;30520;-91
2021/10/28 21:47:34;;;;;;;;;;;;;;;5.82;59.50;100708.00;4410733;32;19982;-91
2021/10/28 21:49:59;;;;;;;;;;;;;;;5.89;59.51;100698.53;4410723;32;19989;-93
2021/10/28 21:52:29;;;;;;;;;;;;;;;6.16;59.53;100693.47;4411645;32;20350;-93
2021/10/28 21:55:10;;;;;;;;;;;;;;;6.22;59.53;100695.19;4410902;32;19994;-94
2021/10/28 21:57:50;;;;;;;;;;;;;;;6.02;59.51;100693.44;4412022;32;19962;-94